Time;durP1;ratioP1;P1;durP2;ratioP2;P2;SDS_P1;SDS_P2;PMS_P1;PMS_P2;Temp;Humidity;BMP_temperature;BMP_pressure;BME280_temperature;BME280_humidity;BME280_pressure;Samples;Min_cycle;Max_cycle;Signal;HPM_P1;HPM_P2
2023/01/23 00:02:15;;;;;;;11.48;6.30;;;;;;;6.63;64.03;101742.75;12794536;22;96705;-79
2023/01/23 00:07:20;;;;;;;10.95;6.97;;;;;;;6.57;64.15;101742.78;12795573;22;96586;-79
2023/01/23 00:12:23;;;;;;;8.57;6.47;;;;;;;6.48;65.25;101737.53;12794604;22;96810;-79
2023/01/23 00:17:27;;;;;;;10.38;6.80;;;;;;;6.46;64.73;101741.00;12795529;22;96767;-79
2023/01/23 00:22:31;;;;;;;9.95;6.43;;;;;;;6.57;64.05;101760.22;12795151;22;97204;-79
2023/01/23 00:27:35;;;;;;;10.17;6.80;;;;;;;6.63;63.38;101758.47;12795727;22;96964;-80
2023/01/23 00:32:38;;;;;;;10.65;6.28;;;;;;;6.69;63.63;101753.25;12795527;22;96655;-79
2023/01/23 00:37:43;;;;;;;10.75;6.85;;;;;;;6.76;63.51;101744.53;12796259;22;96945;-79
2023/01/23 00:42:46;;;;;;;9.97;6.80;;;;;;;6.65;64.73;101734.91;12795308;22;96937;-79
2023/01/23 00:47:49;;;;;;;9.23;7.05;;;;;;;6.66;64.11;101732.28;12794780;22;96865;-79
2023/01/23 00:52:54;;;;;;;10.50;6.88;;;;;;;6.55;64.04;101721.00;12793712;22;96808;-79
2023/01/23 00:57:58;;;;;;;10.77;6.90;;;;;;;6.48;65.33;101715.75;12795227;22;96727;-79
2023/01/23 01:03:01;;;;;;;11.18;7.40;;;;;;;6.49;66.15;101726.19;12795166;22;96579;-79
2023/01/23 01:08:07;;;;;;;10.68;7.40;;;;;;;6.39;66.37;101723.56;12795414;22;96595;-79
2023/01/23 01:13:11;;;;;;;9.98;8.02;;;;;;;6.31;66.44;101723.59;12794810;22;97051;-79
2023/01/23 01:18:14;;;;;;;8.60;6.70;;;;;;;6.45;66.65;101718.38;12795214;22;96669;-79
2023/01/23 01:23:20;;;;;;;10.40;7.97;;;;;;;6.22;68.07;101726.19;12794103;22;96805;-79
2023/01/23 01:28:23;;;;;;;11.07;7.97;;;;;;;6.26;67.43;101724.44;12796132;22;96569;-79
2023/01/23 01:33:27;;;;;;;11.10;7.82;;;;;;;6.19;67.99;101715.72;12795037;22;96682;-79
2023/01/23 01:38:31;;;;;;;10.48;7.38;;;;;;;6.18;66.78;101719.19;12795055;22;96656;-79
2023/01/23 01:43:36;;;;;;;11.67;7.13;;;;;;;6.09;66.79;101720.94;12793579;22;96624;-79
2023/01/23 01:48:44;;;;;;;9.43;7.18;;;;;;;6.14;66.89;101722.69;12793892;22;96663;-79
2023/01/23 01:53:56;;;;;;;9.45;7.00;;;;;;;6.03;66.62;101732.25;12794829;22;96837;-79
2023/01/23 01:59:01;;;;;;;10.63;7.13;;;;;;;6.08;66.33;101730.50;12794676;22;96487;-79
2023/01/23 02:04:05;;;;;;;11.87;7.63;;;;;;;6.00;67.03;101732.25;12794545;22;96776;-79
2023/01/23 02:09:16;;;;;;;9.32;6.88;;;;;;;5.95;66.33;101733.09;12794963;22;96737;-79
2023/01/23 02:14:23;;;;;;;9.98;6.80;;;;;;;6.03;66.92;101721.78;12794581;22;97178;-79
2023/01/23 02:19:37;;;;;;;9.20;6.22;;;;;;;5.92;66.46;101712.19;12794750;22;96801;-79
2023/01/23 02:24:54;;;;;;;10.13;7.30;;;;;;;5.98;66.45;101714.81;12793716;22;96724;-79
2023/01/23 02:29:59;;;;;;;10.75;7.05;;;;;;;5.90;66.72;101716.53;12794226;22;96556;-79
2023/01/23 02:35:15;;;;;;;9.10;6.73;;;;;;;5.82;66.44;101708.69;12793756;22;96772;-79
2023/01/23 02:40:20;;;;;;;8.77;6.47;;;;;;;5.85;66.98;101706.06;12794228;22;96606;-78
2023/01/23 02:45:25;;;;;;;9.23;7.20;;;;;;;5.80;67.03;101712.16;12794357;22;96591;-79
2023/01/23 02:50:28;;;;;;;10.27;6.95;;;;;;;5.77;66.87;101706.91;12793921;22;96565;-79
2023/01/23 02:55:32;;;;;;;8.98;6.55;;;;;;;5.72;67.62;101714.75;12794000;22;96557;-79
2023/01/23 03:00:37;;;;;;;9.70;7.28;;;;;;;5.71;68.00;101709.53;12794065;22;96610;-79
2023/01/23 03:05:40;;;;;;;11.17;8.17;;;;;;;5.70;67.12;101726.91;12793654;22;96859;-79
2023/01/23 03:10:43;;;;;;;11.50;7.82;;;;;;;5.63;67.84;101727.75;12794755;22;96765;-79
2023/01/23 03:15:51;;;;;;;9.85;7.28;;;;;;;5.70;66.58;101729.53;12793132;22;97144;-79
2023/01/23 03:20:55;;;;;;;11.00;7.95;;;;;;;5.68;67.35;101733.88;12793964;22;96919;-79
2023/01/23 03:25:58;;;;;;;12.18;7.50;;;;;;;5.66;67.72;101725.16;12792385;22;96615;-79
2023/01/23 03:31:03;;;;;;;10.10;7.55;;;;;;;5.62;67.68;101719.03;12793801;22;96740;-79
2023/01/23 03:36:07;;;;;;;10.27;7.03;;;;;;;5.61;66.87;101708.59;12793220;22;96685;-78
2023/01/23 03:41:26;;;;;;;10.93;7.00;;;;;;;5.54;67.20;101709.44;12793548;22;96683;-79
2023/01/23 03:46:32;;;;;;;9.65;6.88;;;;;;;5.54;67.81;101718.16;12793372;22;96578;-79
2023/01/23 03:51:35;;;;;;;9.47;7.33;;;;;;;5.55;67.63;101706.84;12792582;22;96504;-79
2023/01/23 03:56:38;;;;;;;8.70;6.32;;;;;;;5.52;67.73;101706.84;12793200;22;97401;-79
2023/01/23 04:01:43;;;;;;;10.07;6.85;;;;;;;5.51;67.45;101706.84;12794360;22;96503;-78
2023/01/23 04:06:46;;;;;;;10.80;7.10;;;;;;;5.40;67.86;101692.84;12792893;22;96790;-79
2023/01/23 04:11:50;;;;;;;11.73;7.53;;;;;;;5.36;68.61;101686.75;12792980;22;96597;-79
2023/01/23 04:16:54;;;;;;;9.55;7.22;;;;;;;5.41;68.40;101692.88;12791278;22;96617;-81
2023/01/23 04:21:58;;;;;;;10.43;7.57;;;;;;;5.41;67.96;101690.28;12792122;22;96723;-78
2023/01/23 04:27:01;;;;;;;9.35;6.57;;;;;;;5.31;68.49;101680.63;12792702;22;96624;-79
2023/01/23 04:32:08;;;;;;;10.30;6.78;;;;;;;5.29;68.66;101679.78;12792586;22;96784;-79
2023/01/23 04:37:12;;;;;;;9.55;6.85;;;;;;;5.35;68.71;101676.31;12792370;22;97372;-78
2023/01/23 04:42:15;;;;;;;9.18;6.80;;;;;;;5.30;69.16;101684.13;12792376;22;96584;-78
2023/01/23 04:47:20;;;;;;;9.90;7.00;;;;;;;5.31;68.85;101685.00;12793702;22;96635;-79
2023/01/23 04:52:23;;;;;;;9.40;6.70;;;;;;;5.27;68.51;101689.34;12796163;22;96883;-79
2023/01/23 04:57:27;;;;;;;9.57;5.97;;;;;;;5.27;67.99;101697.16;12795470;22;96619;-81
2023/01/23 05:02:32;;;;;;;10.75;6.55;;;;;;;5.23;68.46;101681.47;12795194;22;96602;-81
2023/01/23 05:07:35;;;;;;;8.20;6.13;;;;;;;5.35;67.63;101676.31;12793422;22;97474;-78
2023/01/23 05:12:38;;;;;;;8.20;5.57;;;;;;;5.32;67.17;101671.06;12794715;22;97224;-78
2023/01/23 05:17:43;;;;;;;6.57;5.07;;;;;;;5.39;67.50;101646.75;12795083;22;96617;-79
2023/01/23 05:22:52;;;;;;;7.50;5.13;;;;;;;5.35;66.50;101648.47;12794633;22;96804;-78
2023/01/23 05:27:55;;;;;;;8.25;5.43;;;;;;;5.34;67.30;101644.13;12795837;22;96870;-79
2023/01/23 05:33:00;;;;;;;7.85;5.25;;;;;;;5.37;67.48;101632.81;12794987;22;96569;-79
2023/01/23 05:38:03;;;;;;;8.00;5.40;;;;;;;5.37;67.18;101628.47;12795074;22;96664;-79
2023/01/23 05:43:08;;;;;;;7.75;5.22;;;;;;;5.30;67.01;101649.31;12795480;22;96585;-78
2023/01/23 05:48:12;;;;;;;9.40;5.73;;;;;;;5.22;67.19;101648.44;12794740;22;96641;-78
2023/01/23 05:53:16;;;;;;;7.33;5.07;;;;;;;5.11;68.20;101647.50;12794661;22;96809;-79
2023/01/23 05:58:19;;;;;;;8.00;5.82;;;;;;;5.06;68.52;101650.09;12793182;22;96568;-79
2023/01/23 06:03:24;;;;;;;7.93;5.38;;;;;;;5.12;68.83;101644.03;12794551;22;96583;-78
2023/01/23 06:08:27;;;;;;;8.03;4.93;;;;;;;5.16;68.50;101651.88;12794500;22;96636;-79
2023/01/23 06:13:31;;;;;;;7.00;4.60;;;;;;;5.21;67.19;101642.31;12795151;22;96788;-78
2023/01/23 06:18:35;;;;;;;7.20;5.20;;;;;;;5.18;67.51;101623.19;12794434;22;96615;-79
2023/01/23 06:23:38;;;;;;;8.10;5.30;;;;;;;5.22;67.46;101643.22;12794939;22;96668;-79
2023/01/23 06:28:42;;;;;;;7.35;5.10;;;;;;;5.15;67.84;101636.22;12794359;22;96694;-79
2023/01/23 06:33:50;;;;;;;6.50;4.82;;;;;;;5.08;68.16;101637.94;12795325;22;97056;-79
2023/01/23 06:38:53;;;;;;;7.45;5.00;;;;;;;5.18;67.72;101641.44;12794689;22;96569;-78
2023/01/23 06:43:57;;;;;;;6.78;4.40;;;;;;;5.15;67.31;101624.06;12794287;22;96520;-78
2023/01/23 06:49:01;;;;;;;5.90;4.32;;;;;;;5.17;67.33;101635.34;12792350;22;96624;-79
2023/01/23 06:54:08;;;;;;;7.78;4.35;;;;;;;5.22;66.99;101627.56;12794148;22;96611;-78
2023/01/23 06:59:11;;;;;;;5.40;4.20;;;;;;;5.26;66.00;101618.88;12794682;22;96675;-78
2023/01/23 07:04:16;;;;;;;5.82;4.10;;;;;;;5.20;66.93;101634.50;12794368;22;96817;-79
2023/01/23 07:09:19;;;;;;;5.38;3.63;;;;;;;5.22;66.01;101651.03;12793109;22;96954;-79
2023/01/23 07:14:22;;;;;;;7.30;4.20;;;;;;;5.21;66.93;101644.06;12794132;22;97044;-79
2023/01/23 07:19:27;;;;;;;6.15;3.78;;;;;;;5.22;66.46;101651.03;12793331;22;96832;-78
2023/01/23 07:24:31;;;;;;;9.17;4.43;;;;;;;5.18;66.46;101657.97;12794549;22;96783;-79
2023/01/23 07:29:34;;;;;;;5.20;3.80;;;;;;;5.18;66.39;101662.31;12793510;22;96888;-79
2023/01/23 07:34:39;;;;;;;6.57;3.88;;;;;;;5.15;66.39;101664.91;12793652;22;96553;-79
2023/01/23 07:39:42;;;;;;;5.27;3.70;;;;;;;5.13;65.80;101656.22;12793522;22;97092;-78
2023/01/23 07:44:45;;;;;;;6.90;4.22;;;;;;;5.14;65.75;101656.22;12793210;22;98462;-78
2023/01/23 07:49:50;;;;;;;5.65;3.58;;;;;;;5.15;65.66;101657.09;12793230;22;97335;-79
2023/01/23 07:54:53;;;;;;;5.57;3.37;;;;;;;5.15;65.45;101655.38;12793332;22;96698;-79
2023/01/23 07:59:57;;;;;;;4.45;3.17;;;;;;;5.17;66.27;101661.44;12793454;22;96820;-81
2023/01/23 08:05:01;;;;;;;6.75;3.28;;;;;;;5.12;66.37;101651.88;12792647;22;96582;-79
2023/01/23 08:10:05;;;;;;;5.43;3.50;;;;;;;5.14;65.68;101655.34;12792970;22;97038;-79
2023/01/23 08:15:09;;;;;;;4.65;3.08;;;;;;;5.25;65.53;101654.53;12793977;22;96988;-79
2023/01/23 08:20:14;;;;;;;5.03;3.17;;;;;;;5.22;65.56;101646.69;12792502;22;97006;-81
2023/01/23 08:25:18;;;;;;;5.32;3.03;;;;;;;5.23;65.37;101645.81;12796193;22;96792;-79
2023/01/23 08:30:21;;;;;;;5.32;3.22;;;;;;;5.20;65.10;101644.94;12793692;22;96662;-79
2023/01/23 08:35:26;;;;;;;4.38;3.20;;;;;;;5.16;65.38;101651.88;12795775;22;96908;-79
2023/01/23 08:40:29;;;;;;;4.90;3.30;;;;;;;5.17;65.56;101648.38;12795207;22;96652;-79
2023/01/23 08:45:32;;;;;;;5.22;3.45;;;;;;;5.23;64.70;101651.03;12795354;22;97588;-79
2023/01/23 08:50:37;;;;;;;5.47;3.83;;;;;;;5.40;64.75;101664.13;12793709;22;96585;-79
2023/01/23 08:55:41;;;;;;;3.93;3.13;;;;;;;5.50;64.51;101658.09;12795431;22;97107;-79
2023/01/23 09:00:44;;;;;;;5.47;4.10;;;;;;;5.55;64.13;101653.78;12795365;22;96511;-79
2023/01/23 09:05:49;;;;;;;4.95;3.60;;;;;;;5.69;63.29;101662.53;12796134;22;96526;-79
2023/01/23 09:10:52;;;;;;;5.87;3.57;;;;;;;5.87;63.67;101675.59;12795351;22;96655;-79
2023/01/23 09:15:55;;;;;;;6.35;3.42;;;;;;;5.92;62.75;101667.78;12794780;22;96571;-79
2023/01/23 09:21:00;;;;;;;5.72;3.25;;;;;;;6.01;62.96;101671.28;12793921;22;96709;-79
2023/01/23 09:26:05;;;;;;;5.60;3.83;;;;;;;6.00;62.29;101674.78;12794801;22;96691;-79
2023/01/23 09:31:09;;;;;;;6.60;4.32;;;;;;;6.17;62.47;101666.94;12794627;22;96498;-79
2023/01/23 09:36:14;;;;;;;6.43;4.30;;;;;;;6.11;62.85;101662.56;12794879;22;96836;-79
2023/01/23 09:41:20;;;;;;;6.80;4.07;;;;;;;6.16;61.74;101666.06;12794688;22;96683;-79
2023/01/23 09:46:28;;;;;;;7.60;4.50;;;;;;;6.30;62.14;101672.16;12794261;22;96663;-79
2023/01/23 09:51:53;;;;;;;6.30;4.53;;;;;;;6.45;61.97;101664.34;12794148;22;97074;-79
2023/01/23 09:57:00;;;;;;;6.97;4.85;;;;;;;6.50;61.40;101667.81;12795800;22;96609;-79
2023/01/23 10:02:10;;;;;;;8.65;5.22;;;;;;;6.65;60.88;101659.94;12795148;22;96908;-79
2023/01/23 10:07:44;;;;;;;7.72;4.80;;;;;;;6.81;60.21;101656.44;12794520;22;96616;-79
2023/01/23 10:12:58;;;;;;;6.97;4.75;;;;;;;7.01;59.78;101639.84;12793199;22;96608;-79
2023/01/23 10:18:13;;;;;;;5.32;4.40;;;;;;;7.04;59.60;101638.09;12794202;22;97023;-79
2023/01/23 10:23:39;;;;;;;7.87;5.10;;;;;;;7.19;59.78;101645.88;12793914;22;96840;-79
2023/01/23 10:28:44;;;;;;;6.85;4.93;;;;;;;7.20;59.63;101650.25;12789767;22;97799;-79
2023/01/23 10:33:54;;;;;;;7.10;4.70;;;;;;;7.31;58.82;101644.97;12794816;22;96848;-79
2023/01/23 10:39:02;;;;;;;8.95;5.10;;;;;;;7.29;58.48;101631.00;12794347;22;96746;-79
2023/01/23 10:44:14;;;;;;;6.85;4.82;;;;;;;7.37;58.00;101640.56;12793948;22;96685;-79
2023/01/23 10:49:29;;;;;;;6.68;4.57;;;;;;;7.46;57.20;101637.91;12794588;22;96490;-79
2023/01/23 10:54:45;;;;;;;5.13;3.40;;;;;;;7.64;56.43;101634.31;12794243;22;96589;-80
2023/01/23 10:59:54;;;;;;;6.68;4.13;;;;;;;7.72;56.14;101627.28;12794254;22;96534;-79
2023/01/23 11:04:58;;;;;;;5.63;4.10;;;;;;;7.71;55.69;101629.06;12792895;22;96636;-80
2023/01/23 11:10:18;;;;;;;6.03;3.90;;;;;;;7.81;55.94;101633.34;12793701;22;96559;-79
2023/01/23 11:15:23;;;;;;;5.63;4.05;;;;;;;7.90;55.02;101624.53;12793634;22;96669;-80
2023/01/23 11:20:27;;;;;;;;;;;;;;;7.81;55.05;101617.63;12794425;22;96864;-79
2023/01/23 11:25:35;;;;;;;6.32;4.05;;;;;;;7.91;55.32;101607.94;12794047;22;96533;-80
2023/01/23 11:30:44;;;;;;;7.30;4.63;;;;;;;7.99;55.01;101604.38;12793102;22;96588;-80
2023/01/23 11:35:55;;;;;;;7.47;4.15;;;;;;;8.02;55.07;101592.13;12793950;22;97159;-79
2023/01/23 11:41:00;;;;;;;6.45;4.30;;;;;;;8.11;54.38;101582.44;12794881;22;96748;-80
2023/01/23 11:46:34;;;;;;;5.20;4.10;;;;;;;8.27;53.52;101577.94;12793512;22;96780;-79
2023/01/23 11:51:46;;;;;;;4.53;3.53;;;;;;;8.33;53.53;101570.88;12793148;22;96612;-79
2023/01/23 11:57:02;;;;;;;7.95;4.13;;;;;;;8.35;52.88;101556.00;12793249;22;96973;-80
2023/01/23 12:02:46;;;;;;;6.25;4.00;;;;;;;8.46;53.35;101550.66;12795991;22;96561;-80
2023/01/23 12:08:01;;;;;;;17.52;8.98;;;;;;;8.73;53.06;101538.09;12795779;22;97041;-80
2023/01/23 12:13:23;;;;;;;7.10;3.90;;;;;;;8.64;51.96;101532.06;12795596;22;96607;-80
2023/01/23 12:18:40;;;;;;;7.13;4.00;;;;;;;8.81;52.37;101519.63;12795393;22;96589;-80
2023/01/23 12:24:05;;;;;;;6.13;4.03;;;;;;;8.83;51.16;101502.97;12795614;22;96689;-80
2023/01/23 12:29:21;;;;;;;;;;;;;;;8.96;51.28;101496.66;12795942;22;96539;-80
2023/01/23 12:34:40;;;;;;;5.75;3.67;;;;;;;9.01;50.12;101484.38;12796718;22;96668;-80
2023/01/23 12:39:56;;;;;;;6.28;3.95;;;;;;;8.96;49.96;101480.91;12795806;22;96671;-80
2023/01/23 12:45:12;;;;;;;10.15;5.38;;;;;;;9.15;50.20;101471.88;12795626;22;96850;-80
2023/01/23 12:50:19;;;;;;;12.65;5.82;;;;;;;9.15;48.81;101466.63;12793075;22;97443;-80
2023/01/23 12:55:26;;;;;;;7.85;4.10;;;;;;;9.37;49.37;101461.09;12795526;22;97022;-80
2023/01/23 13:00:43;;;;;;;5.75;3.50;;;;;;;9.40;47.71;101446.16;12795021;22;96618;-80
2023/01/23 13:05:56;;;;;;;4.97;3.05;;;;;;;9.70;48.26;101432.53;12795208;22;96584;-80
2023/01/23 13:16:30;;;;;;;14.40;7.00;;;;;;;9.80;47.37;101405.19;12794896;22;97381;-80
2023/01/23 13:26:54;;;;;;;15.48;8.90;;;;;;;9.86;46.59;101385.81;12796174;22;96607;-80
2023/01/23 13:32:21;;;;;;;12.35;6.63;;;;;;;9.95;46.39;101378.59;12794420;22;96643;-80
2023/01/23 13:37:50;;;;;;;8.27;4.13;;;;;;;9.94;45.46;101365.47;12794980;22;96602;-80
2023/01/23 13:42:54;;;;;;;7.50;4.15;;;;;;;10.13;44.87;101359.84;12793539;22;96537;-80
2023/01/23 14:00:00;;;;;;;16.67;8.60;;;;;;;13.17;38.25;101345.56;12421318;23;97149;-81
2023/01/23 14:05:23;;;;;;;17.13;7.43;;;;;;;13.54;36.21;101340.78;12245964;23;96719;-81
2023/01/23 14:10:45;;;;;;;23.45;12.45;;;;;;;13.82;34.81;101327.44;12074498;24;96842;-81
2023/01/23 14:16:13;;;;;;;12.18;6.57;;;;;;;14.17;34.30;101336.78;12099042;23;96839;-81
2023/01/23 14:21:32;;;;;;;14.27;7.68;;;;;;;14.33;34.44;101319.41;11992441;24;97384;-81
2023/01/23 14:26:49;;;;;;;16.70;8.68;;;;;;;14.39;33.61;101320.03;12131207;24;96947;-81
2023/01/23 14:31:52;;;;;;;13.45;8.07;;;;;;;14.67;33.94;101312.75;12146399;23;97023;-81
2023/01/23 14:37:04;;;;;;;14.37;8.73;;;;;;;14.53;33.11;101303.59;12364004;23;96930;-81
2023/01/23 14:42:16;;;;;;;25.27;12.07;;;;;;;14.47;33.04;101285.31;12541366;23;97040;-81
2023/01/23 14:47:29;;;;;;;27.27;14.68;;;;;;;14.71;32.83;101297.59;12541037;23;96921;-81
2023/01/23 14:52:36;;;;;;;13.98;7.72;;;;;;;14.73;32.39;101283.34;12691916;22;96571;-81
2023/01/23 14:57:41;;;;;;;12.23;6.55;;;;;;;14.65;32.74;101284.56;12731583;22;96958;-81
2023/01/23 15:02:49;;;;;;;16.45;9.70;;;;;;;15.21;32.62;101277.81;12731642;22;97012;-81
2023/01/23 15:07:56;;;;;;;26.00;13.60;;;;;;;14.61;33.24;101275.88;12731151;22;96735;-81
2023/01/23 15:13:04;;;;;;;20.33;11.40;;;;;;;14.78;33.18;101269.91;12732549;22;96580;-82
2023/01/23 15:18:21;;;;;;;14.88;9.30;;;;;;;14.38;33.61;101268.00;12770890;22;96746;-81
2023/01/23 15:23:30;;;;;;;13.15;7.18;;;;;;;14.62;33.20;101263.50;12793217;22;96823;-82
2023/01/23 15:28:41;;;;;;;28.27;14.77;;;;;;;14.77;33.00;101255.81;12792514;22;96653;-82
2023/01/23 15:33:46;;;;;;;25.05;13.98;;;;;;;14.53;32.95;101253.28;12793228;22;96686;-81
2023/01/23 15:38:50;;;;;;;23.25;11.65;;;;;;;14.63;32.46;101255.50;12793673;22;96780;-81
2023/01/23 15:43:54;;;;;;;18.38;9.45;;;;;;;14.65;32.16;101253.66;12793055;22;96669;-82
2023/01/23 15:48:57;;;;;;;7.10;4.90;;;;;;;14.40;30.53;101254.69;12792817;22;96812;-81
2023/01/23 15:54:01;;;;;;;7.95;4.88;;;;;;;14.63;30.32;101251.97;12793397;22;96575;-82
2023/01/23 15:59:12;;;;;;;7.65;5.00;;;;;;;14.58;29.77;101243.34;12793237;22;96618;-81
2023/01/23 16:04:16;;;;;;;6.68;4.50;;;;;;;14.56;30.87;101242.53;12795114;22;96767;-82
2023/01/23 16:09:24;;;;;;;7.20;4.43;;;;;;;14.25;30.78;101231.44;12792743;22;96737;-81
2023/01/23 16:14:28;;;;;;;6.78;4.05;;;;;;;14.22;30.85;101234.22;12793133;22;97012;-81
2023/01/23 16:19:32;;;;;;;6.63;4.13;;;;;;;13.98;31.32;101227.19;12791101;22;96689;-82
2023/01/23 16:24:39;;;;;;;8.27;4.70;;;;;;;13.85;31.60;101220.66;12792532;22;96664;-82
2023/01/23 16:29:44;;;;;;;6.53;4.30;;;;;;;13.88;31.61;101226.69;12792241;22;97366;-81
2023/01/23 16:34:47;;;;;;;8.32;5.57;;;;;;;13.73;31.51;101226.41;12792754;22;96618;-81
2023/01/23 16:39:50;;;;;;;10.50;5.90;;;;;;;13.14;32.52;101225.88;12792481;22;96619;-81
2023/01/23 16:44:56;;;;;;;20.88;12.77;;;;;;;12.91;33.02;101224.03;12795106;22;96600;-81
2023/01/23 16:49:59;;;;;;;21.00;12.23;;;;;;;12.63;33.75;101224.94;12794352;22;96649;-82
2023/01/23 16:55:05;;;;;;;33.28;17.80;;;;;;;12.57;34.01;101220.72;12796448;22;96604;-81
2023/01/23 17:00:17;;;;;;;29.63;17.30;;;;;;;12.45;33.90;101226.41;12795230;22;96579;-81
2023/01/23 17:05:36;;;;;;;11.00;6.38;;;;;;;11.90;35.84;101229.00;12795119;22;96582;-81
2023/01/23 17:10:40;;;;;;;9.43;6.32;;;;;;;11.44;37.18;101223.31;12794341;22;96935;-81
2023/01/23 17:15:52;;;;;;;11.13;6.38;;;;;;;11.09;38.20;101227.78;12795029;22;96722;-81
2023/01/23 17:20:57;;;;;;;14.30;8.00;;;;;;;10.92;39.06;101229.09;12794605;22;96630;-80
2023/01/23 17:26:00;;;;;;;9.13;6.15;;;;;;;10.71;41.00;101240.16;12795050;22;96620;-80
2023/01/23 17:31:05;;;;;;;11.32;7.35;;;;;;;10.52;41.31;101233.59;12794773;22;96973;-80
2023/01/23 17:36:08;;;;;;;11.60;6.88;;;;;;;10.33;41.77;101235.78;12795028;22;96535;-80
2023/01/23 17:41:15;;;;;;;11.35;7.18;;;;;;;10.17;42.76;101239.66;12794967;22;96701;-80
2023/01/23 17:46:26;;;;;;;13.18;8.48;;;;;;;9.91;44.01;101244.63;12795196;22;96606;-80
2023/01/23 17:51:29;;;;;;;14.43;8.85;;;;;;;9.74;44.88;101241.47;12794796;22;96525;-80
2023/01/23 17:56:32;;;;;;;16.42;8.20;;;;;;;9.60;45.32;101246.16;12794743;22;96564;-80
2023/01/23 18:01:37;;;;;;;15.48;9.18;;;;;;;9.44;45.82;101248.22;12793473;22;96920;-80
2023/01/23 18:06:40;;;;;;;16.87;10.13;;;;;;;9.29;48.24;101263.38;12794713;22;96548;-80
2023/01/23 18:11:50;;;;;;;17.45;11.52;;;;;;;9.04;49.18;101266.41;12794314;22;97376;-80
2023/01/23 18:16:56;;;;;;;21.15;11.63;;;;;;;8.97;50.03;101275.28;12793937;22;96635;-80
2023/01/23 18:22:00;;;;;;;23.38;12.05;;;;;;;8.98;50.79;101277.00;12794168;22;96578;-80
2023/01/23 18:27:18;;;;;;;20.30;12.27;;;;;;;8.81;51.97;101279.03;12794097;22;97297;-81
2023/01/23 18:32:46;;;;;;;22.02;12.85;;;;;;;8.62;53.00;101289.88;12794179;22;96929;-80
2023/01/23 18:37:58;;;;;;;19.10;11.70;;;;;;;8.53;53.55;101295.25;12792857;22;96974;-80
2023/01/23 18:43:16;;;;;;;19.13;11.25;;;;;;;8.36;55.03;101292.84;12794198;22;96501;-80
2023/01/23 18:48:22;;;;;;;15.80;10.23;;;;;;;8.17;55.91;101290.53;12794076;22;96466;-80
2023/01/23 18:53:40;;;;;;;17.38;11.32;;;;;;;8.03;56.97;101297.69;12792502;22;96876;-81
2023/01/23 18:58:57;;;;;;;18.98;11.27;;;;;;;7.92;56.94;101306.56;12794252;22;96559;-80
2023/01/23 19:04:15;;;;;;;17.92;11.45;;;;;;;7.76;57.18;101309.38;12793969;22;96597;-80
2023/01/23 19:09:21;;;;;;;19.40;10.90;;;;;;;7.53;57.97;101307.00;12793886;22;96632;-80
2023/01/23 19:14:40;;;;;;;13.70;9.18;;;;;;;7.46;57.41;101301.88;12794362;22;96810;-80
2023/01/23 19:19:55;;;;;;;11.75;7.57;;;;;;;7.57;54.79;101313.94;12793398;22;96756;-79
2023/01/23 19:24:59;;;;;;;15.10;7.33;;;;;;;7.63;53.55;101310.41;12793905;22;96774;-79
2023/01/23 19:30:03;;;;;;;13.65;7.90;;;;;;;7.67;52.71;101312.09;12794664;22;96891;-79
2023/01/23 19:35:08;;;;;;;11.85;7.60;;;;;;;7.67;52.63;101317.31;12793918;22;96654;-79
2023/01/23 19:40:17;;;;;;;15.30;8.70;;;;;;;7.67;52.74;101328.69;12793581;22;96639;-79
2023/01/23 19:45:20;;;;;;;12.85;8.43;;;;;;;7.62;52.79;101321.75;12792651;22;97048;-79
2023/01/23 19:50:25;;;;;;;16.23;9.85;;;;;;;7.57;52.30;101323.56;12793709;22;96824;-79
2023/01/23 19:55:30;;;;;;;12.73;9.97;;;;;;;7.62;52.85;101325.25;12793389;22;97079;-79
2023/01/23 20:00:35;;;;;;;15.50;11.30;;;;;;;7.50;53.66;101327.13;12793882;22;96682;-80
2023/01/23 20:05:40;;;;;;;21.63;13.67;;;;;;;7.11;57.59;101323.13;12793382;22;96738;-80
2023/01/23 20:10:43;;;;;;;20.13;13.30;;;;;;;7.05;58.32;101320.56;12792922;22;97060;-80
2023/01/23 20:15:49;;;;;;;21.92;13.40;;;;;;;6.87;58.44;101322.47;12792891;22;97407;-80
2023/01/23 20:20:58;;;;;;;24.65;15.13;;;;;;;6.72;62.21;101320.78;12796297;22;96581;-80
2023/01/23 20:26:02;;;;;;;25.65;15.27;;;;;;;6.59;61.96;101316.53;12795683;22;96957;-80
2023/01/23 20:31:06;;;;;;;19.83;12.27;;;;;;;6.61;60.98;101320.84;12795314;22;96584;-79
2023/01/23 20:36:12;;;;;;;17.90;11.43;;;;;;;6.79;58.30;101318.13;12794640;22;96487;-80
2023/01/23 20:41:17;;;;;;;;;;;;;;;6.82;57.88;101302.44;12796160;22;96613;-80
2023/01/23 20:46:20;;;;;;;16.70;10.70;;;;;;;6.93;57.61;101302.34;12795755;22;96872;-79
2023/01/23 20:51:26;;;;;;;15.20;10.23;;;;;;;6.83;58.12;101313.78;12794754;22;96848;-79
2023/01/23 20:56:29;;;;;;;;;;;;;;;6.50;60.85;101311.34;12795940;22;97409;-79
2023/01/23 21:02:21;;;;;;;17.17;10.25;;;;;;;6.66;58.42;101294.69;12795834;22;96523;-79
2023/01/23 21:06:59;;;;;;;17.25;10.25;;;;;;;6.71;58.12;101285.06;12795417;22;96735;-79
2023/01/23 21:12:02;;;;;;;22.02;13.80;;;;;;;6.53;60.29;101311.31;12796102;22;96770;-80
2023/01/23 21:17:07;;;;;;;14.20;9.77;;;;;;;6.52;59.68;101306.97;12795015;22;96601;-79
2023/01/23 21:22:12;;;;;;;15.30;10.25;;;;;;;6.62;58.73;101304.31;12794482;22;96760;-79
2023/01/23 21:27:15;;;;;;;16.00;10.70;;;;;;;6.52;59.99;101299.16;12793319;22;96816;-79
2023/01/23 21:32:20;;;;;;;14.43;10.15;;;;;;;6.56;58.61;101306.06;12794621;22;96528;-80
2023/01/23 21:37:24;;;;;;;18.48;11.98;;;;;;;6.35;61.03;101304.47;12794883;22;96827;-80
2023/01/23 21:42:27;;;;;;;23.10;13.23;;;;;;;6.12;63.16;101318.53;12794918;22;96567;-80
2023/01/23 21:47:31;;;;;;;18.83;13.07;;;;;;;5.97;64.88;101335.13;12794831;22;96630;-80
2023/01/23 21:52:35;;;;;;;17.88;11.27;;;;;;;5.99;64.30;101343.84;12794376;22;96737;-79
2023/01/23 21:57:38;;;;;;;17.90;11.00;;;;;;;6.10;62.53;101339.44;12794782;22;97037;-79
2023/01/23 22:02:42;;;;;;;17.55;12.07;;;;;;;5.98;64.00;101330.78;12795625;22;97206;-79
2023/01/23 22:07:47;;;;;;;19.85;11.90;;;;;;;5.95;64.70;101359.53;12794226;22;97096;-80
2023/01/23 22:12:50;;;;;;;17.53;11.77;;;;;;;6.07;63.39;101347.31;12794571;22;97137;-79
2023/01/23 22:17:54;;;;;;;17.95;11.70;;;;;;;6.23;62.08;101363.78;12793452;22;97235;-79
2023/01/23 22:22:58;;;;;;;16.75;11.35;;;;;;;6.38;61.74;101358.47;12794749;22;96558;-79
2023/01/23 22:28:02;;;;;;;16.00;11.30;;;;;;;6.34;61.79;101339.31;12794340;22;97007;-79
2023/01/23 22:33:05;;;;;;;18.30;12.25;;;;;;;6.22;63.77;101326.31;12794380;22;96572;-79
2023/01/23 22:38:12;;;;;;;16.15;12.07;;;;;;;6.11;64.00;101341.16;12794290;22;96632;-79
2023/01/23 22:43:16;;;;;;;16.13;11.27;;;;;;;6.08;63.67;101338.59;12794645;22;96868;-79
2023/01/23 22:48:19;;;;;;;16.90;11.68;;;;;;;6.02;64.31;101333.38;12793896;22;96626;-80
2023/01/23 22:53:23;;;;;;;18.33;12.13;;;;;;;6.02;64.52;101330.75;12794811;22;96630;-79
2023/01/23 22:58:26;;;;;;;22.13;16.90;;;;;;;5.97;63.99;101345.56;12794587;22;96710;-80
2023/01/23 23:03:32;;;;;;;14.55;10.30;;;;;;;5.92;64.42;101349.94;12794011;22;96617;-79
2023/01/23 23:08:36;;;;;;;16.27;11.57;;;;;;;5.97;63.98;101348.19;12792897;22;96570;-79
2023/01/23 23:13:41;;;;;;;16.17;11.27;;;;;;;5.91;64.08;101356.06;12793920;22;96624;-80
2023/01/23 23:18:45;;;;;;;15.98;10.82;;;;;;;5.99;64.08;101362.13;12793090;22;96758;-79
2023/01/23 23:23:50;;;;;;;12.70;9.37;;;;;;;6.17;62.41;101358.56;12794216;22;96776;-79
2023/01/23 23:28:55;;;;;;;12.95;8.65;;;;;;;6.34;61.52;101360.25;12793638;22;96540;-79
2023/01/23 23:33:58;;;;;;;13.93;9.00;;;;;;;6.44;60.52;101364.53;12793784;22;97207;-79
2023/01/23 23:39:03;;;;;;;14.05;10.27;;;;;;;6.45;61.52;101344.50;12793816;22;96892;-80
2023/01/23 23:44:06;;;;;;;12.90;8.67;;;;;;;6.56;60.02;101358.34;12795272;22;96506;-80
2023/01/23 23:49:10;;;;;;;12.35;8.50;;;;;;;6.50;60.42;101356.69;12793355;22;96987;-79
2023/01/23 23:54:14;;;;;;;13.18;8.55;;;;;;;6.53;60.32;101354.03;12792647;22;96524;-79
2023/01/23 23:59:17;;;;;;;9.97;7.47;;;;;;;6.55;60.15;101356.63;12791867;22;97351;-79
